Time;durP1;ratioP1;P1;durP2;ratioP2;P2;SDS_P1;SDS_P2;PMS_P1;PMS_P2;Temp;Humidity;BMP_temperature;BMP_pressure;BME280_temperature;BME280_humidity;BME280_pressure;Samples;Min_cycle;Max_cycle;Signal;HPM_P1;HPM_P2
2022/06/03 00:00:19;;;;;;;6.00;5.30;;;;;;;-145.23;100.00;58621.06;5056001;28;20737;-52
2022/06/03 00:03:12;;;;;;;6.50;4.80;;;;;;;-145.23;100.00;58621.06;5059795;28;20705;-52
2022/06/03 00:06:05;;;;;;;7.20;5.45;;;;;;;-145.23;100.00;58621.06;5052021;28;20231;-51
2022/06/03 00:09:00;;;;;;;7.07;4.78;;;;;;;-145.23;100.00;58621.06;5066410;28;20246;-52
2022/06/03 00:11:35;;;;;;;4.95;4.45;;;;;;;-145.23;100.00;58621.06;5055030;28;20227;-52
2022/06/03 00:14:19;;;;;;;4.80;4.40;;;;;;;-145.23;100.00;58621.06;5056179;28;20628;-52
2022/06/03 00:16:52;;;;;;;6.60;4.45;;;;;;;-145.23;100.00;58621.06;5048437;28;20228;-52
2022/06/03 00:19:34;;;;;;;5.78;4.57;;;;;;;-145.23;100.00;58621.06;5059733;28;20678;-53
2022/06/03 00:22:10;;;;;;;6.97;4.95;;;;;;;-145.23;100.00;58621.06;5048167;28;20232;-53
2022/06/03 00:24:54;;;;;;;5.40;4.90;;;;;;;-145.23;100.00;58621.06;5047444;28;20235;-53
2022/06/03 00:27:49;;;;;;;4.68;4.28;;;;;;;-145.23;100.00;58621.06;5051105;28;20247;-52
2022/06/03 00:30:32;;;;;;;7.07;5.20;;;;;;;-145.23;100.00;58621.06;5028717;28;20288;-52
2022/06/03 00:33:31;;;;;;;7.25;4.40;;;;;;;-145.23;100.00;58621.06;5058374;28;20323;-53
2022/06/03 00:36:09;;;;;;;6.60;4.43;;;;;;;-145.23;100.00;58621.06;5056451;28;20725;-52
2022/06/03 00:38:45;;;;;;;7.57;5.55;;;;;;;-145.23;100.00;58621.06;5046972;28;20974;-53
2022/06/03 00:41:27;;;;;;;7.18;5.50;;;;;;;-145.23;100.00;58621.06;5052988;28;20237;-61
2022/06/03 00:44:10;;;;;;;6.38;4.57;;;;;;;-145.23;100.00;58621.06;5062529;28;20725;-51
2022/06/03 00:46:46;;;;;;;5.13;4.72;;;;;;;-145.23;100.00;58621.06;5059234;28;20359;-52
2022/06/03 00:49:28;;;;;;;5.63;5.13;;;;;;;-145.23;100.00;58621.06;5056088;28;20597;-52
2022/06/03 00:52:40;;;;;;;4.53;4.13;;;;;;;-145.23;100.00;58621.06;5057099;28;20236;-51
2022/06/03 00:55:36;;;;;;;5.15;4.65;;;;;;;-145.23;100.00;58621.06;5056404;28;20234;-52
2022/06/03 00:58:13;;;;;;;5.80;5.10;;;;;;;-145.23;100.00;58621.06;5047856;28;20238;-51
2022/06/03 01:00:53;;;;;;;5.13;4.32;;;;;;;-145.23;100.00;58621.06;5052738;28;20321;-51
2022/06/03 01:03:29;;;;;;;5.68;4.53;;;;;;;-145.23;100.00;58621.06;5063325;28;20240;-53
2022/06/03 01:06:14;;;;;;;5.30;4.50;;;;;;;-145.23;100.00;58621.06;5055698;28;20239;-52
2022/06/03 01:08:51;;;;;;;7.13;4.90;;;;;;;-145.23;100.00;58621.06;5066035;28;20227;-51
2022/06/03 01:11:42;;;;;;;6.63;4.40;;;;;;;-145.23;100.00;58621.06;5066954;28;20238;-51
2022/06/03 01:14:19;;;;;;;6.50;5.18;;;;;;;-145.23;100.00;58621.06;5052420;28;20293;-52
2022/06/03 01:16:57;;;;;;;5.18;4.53;;;;;;;-145.23;100.00;58621.06;5050166;28;20232;-53
2022/06/03 01:19:47;;;;;;;6.53;5.38;;;;;;;-145.23;100.00;58621.06;5058402;28;20239;-52
2022/06/03 01:22:34;;;;;;;5.10;4.60;;;;;;;-145.23;100.00;58621.06;5048536;28;20234;-52
2022/06/03 01:25:10;;;;;;;9.75;5.65;;;;;;;-145.23;100.00;58621.06;5046910;28;20235;-52
2022/06/03 01:28:04;;;;;;;6.47;4.82;;;;;;;-145.23;100.00;58621.06;5062475;28;20235;-51
2022/06/03 01:30:43;;;;;;;5.43;4.72;;;;;;;-145.23;100.00;58621.06;5065669;28;20247;-52
2022/06/03 01:33:38;;;;;;;7.68;4.88;;;;;;;-145.23;100.00;58621.06;5047031;28;20414;-51
2022/06/03 01:36:18;;;;;;;6.00;4.13;;;;;;;-145.23;100.00;58621.06;5054873;28;20227;-52
2022/06/03 01:39:17;;;;;;;7.78;4.63;;;;;;;-145.23;100.00;58621.06;5049070;28;20721;-54
2022/06/03 01:42:13;;;;;;;4.60;4.20;;;;;;;-145.23;100.00;58621.06;5040998;28;20235;-52
2022/06/03 01:44:52;;;;;;;6.57;4.85;;;;;;;-145.23;100.00;58621.06;5030886;28;20232;-53
2022/06/03 01:48:06;;;;;;;5.00;4.55;;;;;;;-145.23;100.00;58621.06;5060956;28;20235;-52
2022/06/03 01:51:00;;;;;;;5.03;4.53;;;;;;;-145.23;100.00;58621.06;5064729;28;20231;-53
2022/06/03 01:53:58;;;;;;;5.55;4.53;;;;;;;-145.23;100.00;58621.06;5061110;28;20235;-53
2022/06/03 01:56:46;;;;;;;6.05;5.43;;;;;;;-145.23;100.00;58621.06;4989307;28;20241;-53
2022/06/03 01:59:37;;;;;;;8.43;4.82;;;;;;;-145.23;100.00;58621.06;5042941;28;20232;-54
2022/06/03 02:02:37;;;;;;;4.85;4.45;;;;;;;-145.23;100.00;58621.06;5050943;28;20239;-52
2022/06/03 02:05:27;;;;;;;5.93;5.43;;;;;;;-145.23;100.00;58621.06;5045957;28;20714;-52
2022/06/03 02:08:20;;;;;;;5.82;5.22;;;;;;;-145.23;100.00;58621.06;5046309;28;20299;-51
2022/06/03 02:11:10;;;;;;;5.20;4.40;;;;;;;-145.23;100.00;58621.06;5058872;28;20227;-53
2022/06/03 02:14:09;;;;;;;5.85;4.50;;;;;;;-145.23;100.00;58621.06;5045946;28;20236;-51
2022/06/03 02:17:08;;;;;;;6.18;4.97;;;;;;;-145.23;100.00;58621.06;5048316;28;20232;-52
2022/06/03 02:19:57;;;;;;;4.97;4.00;;;;;;;-145.23;100.00;58621.06;5063703;28;20238;-53
2022/06/03 02:22:54;;;;;;;6.57;4.13;;;;;;;-145.23;100.00;58621.06;5048340;28;20219;-54
2022/06/03 02:25:39;;;;;;;5.87;4.47;;;;;;;-145.23;100.00;58621.06;5050837;28;20325;-53
2022/06/03 02:28:19;;;;;;;4.30;3.90;;;;;;;-145.23;100.00;58621.06;5056442;28;20774;-52
2022/06/03 02:31:11;;;;;;;5.70;3.97;;;;;;;-145.23;100.00;58621.06;5065600;28;20238;-52
2022/06/03 02:33:58;;;;;;;4.87;3.83;;;;;;;-145.23;100.00;58621.06;5064580;28;20258;-52
2022/06/03 02:36:58;;;;;;;4.67;4.27;;;;;;;-145.23;100.00;58621.06;5053056;28;20228;-53
2022/06/03 02:39:44;;;;;;;4.97;4.07;;;;;;;-145.23;100.00;58621.06;5050896;28;20223;-54
2022/06/03 02:42:36;;;;;;;5.00;4.53;;;;;;;-145.23;100.00;58621.06;5047082;28;20253;-52
2022/06/03 02:45:23;;;;;;;5.63;4.53;;;;;;;-145.23;100.00;58621.06;5054515;28;20224;-52
2022/06/03 02:48:24;;;;;;;4.07;3.63;;;;;;;-145.23;100.00;58621.06;5043071;28;20243;-52
2022/06/03 02:51:08;;;;;;;5.23;4.50;;;;;;;-145.23;100.00;58621.06;5061251;28;20680;-53
2022/06/03 02:54:08;;;;;;;4.90;4.17;;;;;;;-145.23;100.00;58621.06;5057630;28;20235;-52
2022/06/03 02:56:46;;;;;;;4.67;4.03;;;;;;;-145.23;100.00;58621.06;5051990;28;20231;-51
2022/06/03 02:59:30;;;;;;;5.40;3.67;;;;;;;-145.23;100.00;58621.06;5046059;28;20239;-51
2022/06/03 03:02:27;;;;;;;4.60;4.20;;;;;;;-145.23;100.00;58621.06;5048964;28;20259;-53
2022/06/03 03:05:18;;;;;;;4.67;4.17;;;;;;;-145.23;100.00;58621.06;5065713;28;20273;-53
2022/06/03 03:07:55;;;;;;;4.80;4.40;;;;;;;-145.23;100.00;58621.06;5056048;28;20304;-53
2022/06/03 03:10:57;;;;;;;6.13;4.28;;;;;;;-145.23;100.00;58621.06;5057135;28;20259;-51
2022/06/03 03:13:35;;;;;;;4.20;3.80;;;;;;;-145.23;100.00;58621.06;5007630;28;20226;-52
2022/06/03 03:16:27;;;;;;;5.53;4.23;;;;;;;-145.23;100.00;58621.06;5064821;28;20322;-52
2022/06/03 03:19:20;;;;;;;6.20;5.07;;;;;;;-145.23;100.00;58621.06;5060622;28;20601;-50
2022/06/03 03:22:03;;;;;;;4.93;4.47;;;;;;;-145.23;100.00;58621.06;5051741;28;20663;-51
2022/06/03 03:24:49;;;;;;;5.10;4.60;;;;;;;-145.23;100.00;58621.06;5050435;28;20237;-51
2022/06/03 03:27:25;;;;;;;6.00;4.50;;;;;;;-145.23;100.00;58621.06;5049231;28;20238;-51
2022/06/03 03:30:05;;;;;;;4.28;3.95;;;;;;;-145.23;100.00;58621.06;5054182;28;20239;-51
2022/06/03 03:33:13;;;;;;;6.40;4.37;;;;;;;-145.23;100.00;58621.06;5059159;28;20313;-51
2022/06/03 03:36:18;;;;;;;6.67;4.57;;;;;;;-145.23;100.00;58621.06;5027580;28;20234;-54
2022/06/03 03:39:05;;;;;;;6.60;4.63;;;;;;;-145.23;100.00;58621.06;5053057;28;20736;-51
2022/06/03 03:42:04;;;;;;;5.17;4.43;;;;;;;-145.23;100.00;58621.06;5053600;28;20238;-52
2022/06/03 03:45:21;;;;;;;4.83;4.30;;;;;;;-145.23;100.00;58621.06;5062963;28;20281;-51
2022/06/03 03:48:24;;;;;;;5.07;4.57;;;;;;;-145.23;100.00;58621.06;4979580;28;20236;-51
2022/06/03 03:51:07;;;;;;;5.77;4.57;;;;;;;-145.23;100.00;58621.06;5054059;28;20333;-53
2022/06/03 03:54:00;;;;;;;5.10;4.50;;;;;;;-145.23;100.00;58621.06;5054783;28;20235;-51
2022/06/03 03:56:51;;;;;;;5.03;4.47;;;;;;;-145.23;100.00;58621.06;5062143;28;20231;-52
2022/06/03 03:59:43;;;;;;;4.50;3.92;;;;;;;-145.23;100.00;58621.06;5052147;28;20244;-54
2022/06/03 04:02:48;;;;;;;5.77;4.53;;;;;;;-145.23;100.00;58621.06;5054726;28;20231;-52
2022/06/03 04:06:02;;;;;;;4.57;4.17;;;;;;;-145.23;100.00;58621.06;5031071;28;20237;-53
2022/06/03 04:08:47;;;;;;;6.00;5.40;;;;;;;-145.23;100.00;58621.06;5053243;28;20235;-52
2022/06/03 04:11:45;;;;;;;5.47;4.57;;;;;;;-145.23;100.00;58621.06;5053134;28;20246;-53
2022/06/03 04:14:48;;;;;;;6.30;5.68;;;;;;;-145.23;100.00;58621.06;5053163;28;20248;-52
2022/06/03 04:17:50;;;;;;;5.45;4.93;;;;;;;-145.23;100.00;58621.06;5052677;28;20242;-55
2022/06/03 04:20:45;;;;;;;5.87;5.20;;;;;;;-145.23;100.00;58621.06;5026759;28;20258;-51
2022/06/03 04:23:46;;;;;;;6.47;5.53;;;;;;;-145.23;100.00;58621.06;5040947;28;20714;-53
2022/06/03 04:26:32;;;;;;;6.57;4.97;;;;;;;-145.23;100.00;58621.06;5053476;28;20275;-53
2022/06/03 04:29:34;;;;;;;5.85;5.28;;;;;;;-145.23;100.00;58621.06;5053993;28;21128;-54
2022/06/03 04:32:42;;;;;;;6.37;5.77;;;;;;;-145.23;100.00;58621.06;5055955;28;20235;-51
2022/06/03 04:36:04;;;;;;;7.67;5.73;;;;;;;-145.23;100.00;58621.06;4976531;28;20266;-52
2022/06/03 04:39:08;;;;;;;6.80;5.90;;;;;;;-145.23;100.00;58621.06;4972788;28;20237;-53
2022/06/03 04:42:09;;;;;;;5.43;4.97;;;;;;;-145.23;100.00;58621.06;5053885;28;20255;-53
2022/06/03 04:45:32;;;;;;;7.25;6.55;;;;;;;-145.23;100.00;58621.06;5065673;28;20643;-52
2022/06/03 04:48:23;;;;;;;6.28;5.68;;;;;;;-145.23;100.00;58621.06;4979912;28;20237;-54
2022/06/03 04:51:19;;;;;;;7.20;6.47;;;;;;;-145.23;100.00;58621.06;5058963;28;20228;-52
2022/06/03 04:54:19;;;;;;;7.88;7.07;;;;;;;-145.23;100.00;58621.06;5055782;28;20231;-54
2022/06/03 04:57:15;;;;;;;8.15;6.38;;;;;;;-145.23;100.00;58621.06;5056002;28;20223;-52
2022/06/03 05:00:08;;;;;;;10.05;7.13;;;;;;;-145.23;100.00;58621.06;5060047;28;20231;-53
2022/06/03 05:03:25;;;;;;;6.65;6.05;;;;;;;-145.23;100.00;58621.06;5053932;28;20243;-56
2022/06/03 05:06:28;;;;;;;10.20;8.85;;;;;;;-145.23;100.00;58621.06;5056231;28;20236;-51
2022/06/03 05:09:34;;;;;;;8.10;7.30;;;;;;;-145.23;100.00;58621.06;5048658;28;20234;-51
2022/06/03 05:12:39;;;;;;;8.63;7.53;;;;;;;-145.23;100.00;58621.06;5018159;28;20323;-53
2022/06/03 05:15:29;;;;;;;7.20;6.32;;;;;;;-145.23;100.00;58621.06;5050318;28;20228;-52
2022/06/03 05:18:31;;;;;;;7.60;6.75;;;;;;;-145.23;100.00;58621.06;5053551;28;20227;-51
2022/06/03 05:21:51;;;;;;;6.22;5.45;;;;;;;-145.23;100.00;58621.06;5063926;28;20226;-51
2022/06/03 05:24:40;;;;;;;8.57;5.72;;;;;;;-145.23;100.00;58621.06;5057391;28;20234;-53
2022/06/03 05:27:35;;;;;;;11.55;7.00;;;;;;;-145.23;100.00;58621.06;5048095;28;20232;-54
2022/06/03 05:30:33;;;;;;;7.72;5.93;;;;;;;-145.23;100.00;58621.06;5059527;28;20239;-55
2022/06/03 05:33:20;;;;;;;5.65;4.47;;;;;;;-145.23;100.00;58621.06;5057003;28;20234;-53
2022/06/03 05:36:08;;;;;;;5.43;4.65;;;;;;;-145.23;100.00;58621.06;5061167;28;20238;-51
2022/06/03 05:38:47;;;;;;;5.28;4.78;;;;;;;-145.23;100.00;58621.06;5052818;28;20713;-53
2022/06/03 05:44:22;;;;;;;6.30;5.38;;;;;;;-145.23;100.00;58621.06;5049255;28;20610;-52
2022/06/03 05:46:58;;;;;;;6.10;5.50;;;;;;;-145.23;100.00;58621.06;5047846;28;20223;-52
2022/06/03 05:49:35;;;;;;;4.80;4.28;;;;;;;-145.23;100.00;58621.06;5048995;28;20308;-53
2022/06/03 05:52:40;;;;;;;5.72;4.47;;;;;;;-145.23;100.00;58621.06;5062923;28;20741;-51
2022/06/03 05:55:21;;;;;;;4.18;3.42;;;;;;;-145.23;100.00;58621.06;5007444;28;20246;-52
2022/06/03 05:57:57;;;;;;;4.18;3.85;;;;;;;-145.23;100.00;58621.06;5058945;28;20230;-53
2022/06/03 06:00:50;;;;;;;5.00;4.60;;;;;;;-145.23;100.00;58621.06;5053572;28;20238;-52
2022/06/03 06:03:31;;;;;;;4.30;3.33;;;;;;;-145.23;100.00;58621.06;4990158;28;20735;-54
2022/06/03 06:06:11;;;;;;;6.97;4.13;;;;;;;-145.23;100.00;58621.06;5052139;28;20303;-52
2022/06/03 06:08:46;;;;;;;4.47;3.90;;;;;;;-145.23;100.00;58621.06;5047961;28;20235;-52
2022/06/03 06:11:18;;;;;;;4.65;4.05;;;;;;;-145.23;100.00;58621.06;5054343;28;20235;-53
2022/06/03 06:14:14;;;;;;;3.70;3.40;;;;;;;-145.23;100.00;58621.06;5053527;28;20846;-52
2022/06/03 06:16:43;;;;;;;4.80;3.10;;;;;;;-145.23;100.00;58621.06;5058246;28;20223;-50
2022/06/03 06:19:13;;;;;;;3.33;3.03;;;;;;;-145.23;100.00;58621.06;5055273;28;20231;-52
2022/06/03 06:22:12;;;;;;;3.55;3.25;;;;;;;-145.23;100.00;58621.06;5048811;28;20232;-51
2022/06/03 06:25:03;;;;;;;3.67;3.38;;;;;;;-145.23;100.00;58621.06;5007570;28;20288;-52
2022/06/03 06:27:57;;;;;;;4.28;3.03;;;;;;;-145.23;100.00;58621.06;5058529;28;20254;-53
2022/06/03 06:30:39;;;;;;;3.67;3.38;;;;;;;-145.23;100.00;58621.06;5058519;28;20775;-51
2022/06/03 06:33:16;;;;;;;3.05;2.75;;;;;;;-145.23;100.00;58621.06;5052734;28;20227;-53
2022/06/03 06:36:27;;;;;;;4.78;3.00;;;;;;;-145.23;100.00;58621.06;5061180;28;20673;-53
2022/06/03 06:39:02;;;;;;;4.18;2.88;;;;;;;-145.23;100.00;58621.06;5059377;28;20235;-52
2022/06/03 06:41:38;;;;;;;2.85;2.65;;;;;;;-145.23;100.00;58621.06;5064983;28;20234;-53
2022/06/03 06:44:09;;;;;;;2.72;2.05;;;;;;;-145.23;100.00;58621.06;5052910;28;20220;-54
2022/06/03 06:46:48;;;;;;;3.90;2.42;;;;;;;-145.23;100.00;58621.06;5051963;28;20236;-52
2022/06/03 06:49:24;;;;;;;3.70;2.60;;;;;;;-145.23;100.00;58621.06;5051214;28;20253;-50
2022/06/03 06:52:03;;;;;;;2.50;1.92;;;;;;;-145.23;100.00;58621.06;5051958;28;20235;-51
2022/06/03 06:54:39;;;;;;;2.30;2.08;;;;;;;-145.23;100.00;58621.06;5055712;28;20234;-53
2022/06/03 06:57:10;;;;;;;3.95;2.20;;;;;;;-145.23;100.00;58621.06;5052972;28;20227;-52
2022/06/03 06:59:40;;;;;;;5.00;2.40;;;;;;;-145.23;100.00;58621.06;5060266;28;20261;-51
2022/06/03 07:02:11;;;;;;;2.97;2.45;;;;;;;-145.23;100.00;58621.06;5051625;28;20260;-53
2022/06/03 07:04:41;;;;;;;2.30;2.10;;;;;;;-145.23;100.00;58621.06;5057355;28;20245;-52
2022/06/03 07:07:15;;;;;;;1.85;1.75;;;;;;;-145.23;100.00;58621.06;5052785;28;20249;-52
2022/06/03 07:09:50;;;;;;;2.53;2.30;;;;;;;-145.23;100.00;58621.06;5051421;28;20622;-52
2022/06/03 07:12:18;;;;;;;5.97;2.47;;;;;;;-145.23;100.00;58621.06;5053693;28;20233;-52
2022/06/03 07:14:54;;;;;;;4.20;2.35;;;;;;;-145.23;100.00;58621.06;5047199;28;20303;-53
2022/06/03 07:20:17;;;;;;;2.28;2.00;;;;;;;-145.23;100.00;58621.06;5046214;28;20297;-51
2022/06/03 07:22:48;;;;;;;2.95;2.25;;;;;;;-145.23;100.00;58621.06;5055472;28;20628;-52
2022/06/03 07:25:23;;;;;;;4.00;2.20;;;;;;;-145.23;100.00;58621.06;5056896;28;20236;-54
2022/06/03 07:27:55;;;;;;;2.40;2.08;;;;;;;-145.23;100.00;58621.06;5053791;28;20703;-51
2022/06/03 07:30:25;;;;;;;2.72;2.53;;;;;;;-145.23;100.00;58621.06;5057317;28;20236;-51
2022/06/03 07:32:58;;;;;;;2.63;2.22;;;;;;;-145.23;100.00;58621.06;5058312;28;20239;-51
2022/06/03 07:35:30;;;;;;;2.58;1.85;;;;;;;-145.23;100.00;58621.06;5049851;28;20227;-52
2022/06/03 07:38:02;;;;;;;2.38;2.00;;;;;;;-145.23;100.00;58621.06;5059606;28;20330;-52
2022/06/03 07:40:33;;;;;;;3.33;2.55;;;;;;;-145.23;100.00;58621.06;5059193;28;20235;-53
2022/06/03 07:43:05;;;;;;;7.53;2.47;;;;;;;-145.23;100.00;58621.06;5056211;28;20234;-53
2022/06/03 07:45:39;;;;;;;2.13;1.88;;;;;;;-145.23;100.00;58621.06;5062621;28;20242;-52
2022/06/03 07:48:11;;;;;;;2.38;2.17;;;;;;;-145.23;100.00;58621.06;5058910;28;20234;-54
2022/06/03 07:50:52;;;;;;;5.00;2.00;;;;;;;-145.23;100.00;58621.06;5062806;28;20234;-52
2022/06/03 07:53:22;;;;;;;1.92;1.83;;;;;;;-145.23;100.00;58621.06;5062497;28;20237;-53
2022/06/03 07:55:54;;;;;;;2.03;1.90;;;;;;;-145.23;100.00;58621.06;5051605;28;20219;-57
2022/06/03 07:58:22;;;;;;;3.15;2.00;;;;;;;-145.23;100.00;58621.06;5059995;28;20292;-52
2022/06/03 08:00:49;;;;;;;4.45;2.33;;;;;;;-145.23;100.00;58621.06;5058648;28;20233;-58
2022/06/03 08:03:19;;;;;;;2.45;2.17;;;;;;;-145.23;100.00;58621.06;5059437;28;20246;-52
2022/06/03 08:05:49;;;;;;;3.50;2.75;;;;;;;-145.23;100.00;58621.06;5062219;28;20705;-52
2022/06/03 08:11:05;;;;;;;2.90;1.90;;;;;;;-145.23;100.00;58621.06;5058330;28;20622;-53
2022/06/03 08:13:46;;;;;;;2.72;1.90;;;;;;;-145.23;100.00;58621.06;5056026;28;20220;-51
2022/06/03 08:16:16;;;;;;;3.13;2.30;;;;;;;-145.23;100.00;58621.06;5056557;28;20274;-52
2022/06/03 08:18:44;;;;;;;2.45;2.25;;;;;;;-145.23;100.00;58621.06;5056432;28;20243;-51
2022/06/03 08:21:13;;;;;;;2.10;1.90;;;;;;;-145.23;100.00;58621.06;5059978;28;20231;-52
2022/06/03 08:23:40;;;;;;;2.17;1.98;;;;;;;-145.23;100.00;58621.06;5052809;28;20428;-52
2022/06/03 08:26:11;;;;;;;1.90;1.80;;;;;;;-145.23;100.00;58621.06;5050280;28;20242;-52
2022/06/03 08:28:40;;;;;;;2.42;2.20;;;;;;;-145.23;100.00;58621.06;5054043;28;20230;-52
2022/06/03 08:31:07;;;;;;;1.73;1.63;;;;;;;-145.23;100.00;58621.06;5051551;28;20231;-52
2022/06/03 08:33:39;;;;;;;1.38;1.33;;;;;;;-145.23;100.00;58621.06;5058908;28;20239;-52
2022/06/03 08:36:08;;;;;;;2.30;2.10;;;;;;;-145.23;100.00;58621.06;5055546;28;20614;-53
2022/06/03 08:38:39;;;;;;;1.50;1.40;;;;;;;-145.23;100.00;58621.06;5059820;28;20234;-52
2022/06/03 08:41:15;;;;;;;3.90;2.13;;;;;;;-145.23;100.00;58621.06;5052251;28;20240;-53
2022/06/03 08:43:55;;;;;;;2.47;1.98;;;;;;;-145.23;100.00;58621.06;5062939;28;20412;-54
2022/06/03 08:46:25;;;;;;;2.25;2.05;;;;;;;-145.23;100.00;58621.06;5063106;28;20239;-52
2022/06/03 08:48:54;;;;;;;2.22;2.03;;;;;;;-145.23;100.00;58621.06;5055825;28;20233;-51
2022/06/03 08:51:26;;;;;;;2.22;2.03;;;;;;;-145.23;100.00;58621.06;5058655;28;20246;-53
2022/06/03 08:53:58;;;;;;;3.58;1.80;;;;;;;-145.23;100.00;58621.06;5056426;28;20234;-53
2022/06/03 08:56:27;;;;;;;2.00;1.90;;;;;;;-145.23;100.00;58621.06;5052766;28;20223;-51
2022/06/03 08:59:01;;;;;;;1.90;1.80;;;;;;;-145.23;100.00;58621.06;5054352;28;20231;-52
2022/06/03 09:01:33;;;;;;;4.78;1.73;;;;;;;-145.23;100.00;58621.06;5056464;28;20791;-52
2022/06/03 09:04:10;;;;;;;2.95;2.08;;;;;;;-145.23;100.00;58621.06;5062469;28;20339;-51
2022/06/03 09:06:45;;;;;;;2.00;1.80;;;;;;;-145.23;100.00;58621.06;5057522;28;20465;-52
2022/06/03 09:09:18;;;;;;;1.98;1.88;;;;;;;-145.23;100.00;58621.06;5055349;28;20244;-52
2022/06/03 09:11:48;;;;;;;4.55;2.05;;;;;;;-145.23;100.00;58621.06;5054687;28;20241;-53
2022/06/03 09:14:19;;;;;;;2.33;2.22;;;;;;;-145.23;100.00;58621.06;5055885;28;20277;-52
2022/06/03 09:16:47;;;;;;;4.45;1.95;;;;;;;-145.23;100.00;58621.06;5058366;28;20255;-51
2022/06/03 09:19:17;;;;;;;2.97;2.33;;;;;;;-145.23;100.00;58621.06;5056594;28;20323;-52
2022/06/03 09:21:50;;;;;;;3.17;1.90;;;;;;;-145.23;100.00;58621.06;5057229;28;20428;-52
2022/06/03 09:24:20;;;;;;;2.60;2.40;;;;;;;-145.23;100.00;58621.06;5053358;28;20807;-52
2022/06/03 09:26:50;;;;;;;2.67;2.20;;;;;;;-145.23;100.00;58621.06;5059851;28;20416;-52
2022/06/03 09:29:17;;;;;;;2.03;1.90;;;;;;;-145.23;100.00;58621.06;5056839;28;20736;-52
2022/06/03 09:31:49;;;;;;;2.08;1.95;;;;;;;-145.23;100.00;58621.06;5056189;28;20231;-54
2022/06/03 09:34:16;;;;;;;2.13;2.00;;;;;;;-145.23;100.00;58621.06;5054374;28;20231;-53
2022/06/03 09:36:45;;;;;;;2.70;2.50;;;;;;;-145.23;100.00;58621.06;5054496;28;20238;-50
2022/06/03 09:39:14;;;;;;;2.25;2.15;;;;;;;-145.23;100.00;58621.06;5053847;28;20822;-52
2022/06/03 09:41:44;;;;;;;5.72;2.35;;;;;;;-145.23;100.00;58621.06;5050661;28;20381;-54
2022/06/03 09:44:13;;;;;;;3.05;2.13;;;;;;;-145.23;100.00;58621.06;5050686;28;25153;-53
2022/06/03 09:46:40;;;;;;;3.28;1.95;;;;;;;-145.23;100.00;58621.06;5050995;28;20335;-53
2022/06/03 09:49:08;;;;;;;1.90;1.80;;;;;;;-145.23;100.00;58621.06;5047720;28;20283;-49
2022/06/03 09:51:59;;;;;;;2.78;2.40;;;;;;;-145.23;100.00;58621.06;5055603;28;20432;-52
2022/06/03 09:54:29;;;;;;;3.55;1.92;;;;;;;-145.23;100.00;58621.06;5048085;28;20223;-52
2022/06/03 09:56:59;;;;;;;2.53;2.33;;;;;;;-145.23;100.00;58621.06;5048722;28;20945;-52
2022/06/03 09:59:27;;;;;;;3.20;2.20;;;;;;;-145.23;100.00;58621.06;5052525;28;20239;-52
2022/06/03 10:01:54;;;;;;;2.47;2.00;;;;;;;-145.23;100.00;58621.06;5052333;28;20586;-54
2022/06/03 10:04:22;;;;;;;1.88;1.77;;;;;;;-145.23;100.00;58621.06;5049696;28;20235;-51
2022/06/03 10:06:50;;;;;;;2.30;1.95;;;;;;;-145.23;100.00;58621.06;5051536;28;20593;-55
2022/06/03 10:17:31;;;;;;;2.92;1.88;;;;;;;-145.23;100.00;58621.06;5048485;28;20242;-52
2022/06/03 10:19:58;;;;;;;1.98;1.75;;;;;;;-145.23;100.00;58621.06;5050186;28;20232;-52
2022/06/03 10:22:25;;;;;;;2.00;1.90;;;;;;;-145.23;100.00;58621.06;5044930;28;20240;-51
2022/06/03 10:24:52;;;;;;;2.88;1.95;;;;;;;-145.23;100.00;58621.06;5050350;28;20989;-53
2022/06/03 10:27:21;;;;;;;2.78;1.75;;;;;;;-145.23;100.00;58621.06;5052159;28;20242;-52
2022/06/03 10:29:49;;;;;;;2.03;1.92;;;;;;;-145.23;100.00;58621.06;5050059;28;20227;-52
2022/06/03 10:32:19;;;;;;;2.33;1.83;;;;;;;-145.23;100.00;58621.06;5054116;28;20234;-52
2022/06/03 10:34:47;;;;;;;2.15;1.67;;;;;;;-145.23;100.00;58621.06;5053592;28;20232;-51
2022/06/03 10:37:15;;;;;;;2.33;1.95;;;;;;;-145.23;100.00;58621.06;5056829;28;20227;-57
2022/06/03 10:39:44;;;;;;;1.92;1.63;;;;;;;-145.23;100.00;58621.06;5045347;28;20243;-52
2022/06/03 10:42:14;;;;;;;2.10;2.00;;;;;;;-145.23;100.00;58621.06;5051694;28;20945;-52
2022/06/03 10:44:45;;;;;;;2.00;1.90;;;;;;;-145.23;100.00;58621.06;5045706;28;20232;-52
2022/06/03 10:47:16;;;;;;;2.78;1.92;;;;;;;-145.23;100.00;58621.06;5053697;28;20235;-54
2022/06/03 10:49:52;;;;;;;3.00;1.85;;;;;;;-145.23;100.00;58621.06;5050999;28;20493;-53
2022/06/03 11:03:32;;;;;;;4.18;1.23;;;;;;;-145.23;100.00;58621.06;5046624;28;20257;-52
2022/06/03 11:06:05;;;;;;;1.88;1.70;;;;;;;-145.23;100.00;58621.06;5048845;28;20223;-52
2022/06/03 11:08:46;;;;;;;1.88;1.67;;;;;;;-145.23;100.00;58621.06;5051837;28;20254;-51
2022/06/03 11:11:13;;;;;;;1.48;1.38;;;;;;;-145.23;100.00;58621.06;5040372;28;20239;-53
2022/06/03 11:13:40;;;;;;;2.38;1.77;;;;;;;-145.23;100.00;58621.06;5048449;28;20223;-51
2022/06/03 11:16:19;;;;;;;1.63;1.52;;;;;;;-145.23;100.00;58621.06;5044557;28;20240;-51
2022/06/03 11:18:46;;;;;;;1.63;1.52;;;;;;;-145.23;100.00;58621.06;5048277;28;20239;-53
2022/06/03 11:21:23;;;;;;;1.80;1.67;;;;;;;-145.23;100.00;58621.06;5056289;28;20265;-54
2022/06/03 11:23:50;;;;;;;1.58;1.48;;;;;;;-145.23;100.00;58621.06;5049360;28;20227;-52
2022/06/03 11:26:16;;;;;;;2.28;1.50;;;;;;;-145.23;100.00;58621.06;5048896;28;20333;-51
2022/06/03 11:28:51;;;;;;;1.67;1.58;;;;;;;-145.23;100.00;58621.06;5058146;28;20321;-51
2022/06/03 11:31:22;;;;;;;3.60;1.77;;;;;;;-145.23;100.00;58621.06;5051124;28;20724;-51
2022/06/03 11:33:51;;;;;;;2.08;1.92;;;;;;;-145.23;100.00;58621.06;5055753;28;20242;-53
2022/06/03 11:36:20;;;;;;;1.90;1.80;;;;;;;-145.23;100.00;58621.06;5049321;28;20238;-53
2022/06/03 11:38:50;;;;;;;1.52;1.42;;;;;;;-145.23;100.00;58621.06;5052472;28;20232;-50
2022/06/03 11:41:21;;;;;;;3.85;1.70;;;;;;;-145.23;100.00;58621.06;5053488;28;20233;-52
2022/06/03 11:43:52;;;;;;;1.50;1.40;;;;;;;-145.23;100.00;58621.06;5048313;28;20472;-54
2022/06/03 11:46:25;;;;;;;1.70;1.60;;;;;;;-145.23;100.00;58621.06;5053547;28;20296;-51
2022/06/03 11:48:53;;;;;;;1.73;1.50;;;;;;;-145.23;100.00;58621.06;5051079;28;20987;-51
2022/06/03 11:51:19;;;;;;;3.22;1.60;;;;;;;-145.23;100.00;58621.06;5055809;28;20231;-52
2022/06/03 11:53:49;;;;;;;3.10;1.55;;;;;;;-145.23;100.00;58621.06;5053908;28;20227;-52
2022/06/03 11:56:18;;;;;;;1.80;1.70;;;;;;;-145.23;100.00;58621.06;5052512;28;20247;-53
2022/06/03 11:58:54;;;;;;;1.27;1.27;;;;;;;-145.23;100.00;58621.06;5049333;28;20416;-52
2022/06/03 12:01:30;;;;;;;1.55;1.40;;;;;;;-145.23;100.00;58621.06;5054172;28;20223;-51
2022/06/03 12:04:00;;;;;;;2.53;1.40;;;;;;;-145.23;100.00;58621.06;5051821;28;20227;-52
2022/06/03 12:06:32;;;;;;;1.40;1.30;;;;;;;-145.23;100.00;58621.06;5052830;28;20235;-53
2022/06/03 12:09:02;;;;;;;1.80;1.70;;;;;;;-145.23;100.00;58621.06;5052304;28;20235;-53
2022/06/03 12:14:30;;;;;;;3.53;1.45;;;;;;;-145.23;100.00;58621.06;5055082;28;20242;-52
2022/06/03 12:17:01;;;;;;;1.45;1.33;;;;;;;-145.23;100.00;58621.06;5049356;28;20232;-52
2022/06/03 12:19:40;;;;;;;1.38;1.27;;;;;;;-145.23;100.00;58621.06;5059485;28;20427;-53
2022/06/03 12:22:22;;;;;;;2.25;1.35;;;;;;;-145.23;100.00;58621.06;5044132;28;20235;-52
2022/06/03 12:24:51;;;;;;;1.55;1.45;;;;;;;-145.23;100.00;58621.06;5047800;28;20223;-52
2022/06/03 12:27:24;;;;;;;1.35;1.25;;;;;;;-145.23;100.00;58621.06;5052441;28;20231;-51
2022/06/03 12:30:28;;;;;;;1.42;1.33;;;;;;;-145.23;100.00;58621.06;5052367;28;20231;-52
2022/06/03 12:32:58;;;;;;;1.40;1.30;;;;;;;-145.23;100.00;58621.06;5054570;28;20239;-52
2022/06/03 12:35:52;;;;;;;1.85;1.45;;;;;;;-145.23;100.00;58621.06;5050780;28;20913;-52
2022/06/03 12:38:32;;;;;;;1.63;1.52;;;;;;;-145.23;100.00;58621.06;5054554;28;21264;-54
2022/06/03 12:41:00;;;;;;;2.53;1.90;;;;;;;-145.23;100.00;58621.06;5056579;28;20223;-52
2022/06/03 12:43:32;;;;;;;2.20;1.70;;;;;;;-145.23;100.00;58621.06;5051835;28;20241;-53